Gerton, NC

19:29 EDT, 29. Yül, 2016 (GMT -0400)
Rabbit Run Creekside | | Change Station

Elev 2835 ft 35.48 °N, 82.35 °W | Updated 4 minutes ago

Light Rain
Ciñel yañğır
71.0 °F
Feels Like 71.0 °F
N
0.0
Cel Üzgärüçän Cel from
Gusts 2.0 mil/seğ

Bogön
High -- | Low -- °F
--% Chance of Precip.
Kiçä
High -- | Low -- °F
Precip. -- in
Basım 30.04 in
Köriniwçenlik 10.0 mil
Bolıtlı Few 6000 ft
Few 7000 ft
Bolıtlı 10000 ft
Çıq noqtası 68 °F
Dımlıq 91%
Rainfall in
Qar bieklege Not available.
6:35 AM 8:35 PM
Waning Crescent, 18% visible
SPECI KAVL 292312Z 00000KT 10SM -RA FEW060 FEW070 OVC100 24/21 A3004 RMK AO2 P0001 T02390211
Basım 30.04 in
Köriniwçenlik 10.0 mil
Bolıtlı Few 6000 ft
Few 7000 ft
Bolıtlı 10000 ft
Çıq noqtası 68 °F
Dımlıq 91%
Rainfall in
Qar bieklege Not available.
6:35 AM 8:35 PM
Waning Crescent, 18% visible
SPECI KAVL 292312Z 00000KT 10SM -RA FEW060 FEW070 OVC100 24/21 A3004 RMK AO2 P0001 T02390211

10-Day Weather Forecast

Almanac

Kükbelem

Jul. 29, 2016 Rise Set
Anıñ çağı
Tormışlı qaranğı
Diñgezdä qarañğı
Küktä qarañğı
Ay
Kürenmäle yaqtı ozınlığı
Kön ozınlığı
Tomorrow will be .
, % of the Moon is Illuminated

Today's Extremes

State Highs State Lows

Community

WunderPhotos

Upload Photos

1,928,439 photos uploaded!

WunderBlog® & News

Nearby

Hawa Sífatı

  Hawa Sífatı HS İndekse Pıçratqıç
Not available.

Qar terenligi

Station Depth Böyiklik

Earthquake Activity

Qala Distance Mag. Time & Date
Minimum magnitude displayed is 2.5.

Coastal Water Temperatures

Orın Cılılıq

Stations

Nearby Weather Stations

Station Location Cılılıq Cel köçi Çıq noqtası Dımlıq Cel Precip. Elev Yañartılıw Töri
                   

Watches & Warnings

There are currently no watches in effect.